sensor_id;sensor_type;location;lat;lon;timestamp;P1;durP1;ratioP1;P2;durP2;ratioP2
17398;SDS011;8817;48.170;8.592;2022-07-10T00:00:47;6.35;;;5.95;;
17398;SDS011;8817;48.170;8.592;2022-07-10T00:03:15;6.07;;;5.70;;
17398;SDS011;8817;48.170;8.592;2022-07-10T00:05:42;6.18;;;5.88;;
17398;SDS011;8817;48.170;8.592;2022-07-10T00:08:09;6.32;;;5.95;;
17398;SDS011;8817;48.170;8.592;2022-07-10T00:10:36;6.13;;;5.78;;
17398;SDS011;8817;48.170;8.592;2022-07-10T00:13:03;6.30;;;5.90;;
17398;SDS011;8817;48.170;8.592;2022-07-10T00:15:30;6.70;;;6.10;;
17398;SDS011;8817;48.170;8.592;2022-07-10T00:17:58;6.55;;;6.05;;
17398;SDS011;8817;48.170;8.592;2022-07-10T00:20:27;6.05;;;5.75;;
17398;SDS011;8817;48.170;8.592;2022-07-10T00:22:54;6.43;;;6.03;;
17398;SDS011;8817;48.170;8.592;2022-07-10T00:25:21;5.90;;;5.60;;
17398;SDS011;8817;48.170;8.592;2022-07-10T00:27:47;6.15;;;5.75;;
17398;SDS011;8817;48.170;8.592;2022-07-10T00:30:14;5.90;;;5.60;;
17398;SDS011;8817;48.170;8.592;2022-07-10T00:32:41;6.40;;;6.00;;
17398;SDS011;8817;48.170;8.592;2022-07-10T00:35:09;6.20;;;5.90;;
17398;SDS011;8817;48.170;8.592;2022-07-10T00:37:37;6.70;;;6.20;;
17398;SDS011;8817;48.170;8.592;2022-07-10T00:40:04;6.20;;;5.90;;
17398;SDS011;8817;48.170;8.592;2022-07-10T00:42:32;6.63;;;6.05;;
17398;SDS011;8817;48.170;8.592;2022-07-10T00:44:59;6.15;;;5.82;;
17398;SDS011;8817;48.170;8.592;2022-07-10T00:47:26;6.32;;;5.93;;
17398;SDS011;8817;48.170;8.592;2022-07-10T00:49:54;6.07;;;5.78;;
17398;SDS011;8817;48.170;8.592;2022-07-10T00:52:21;6.35;;;5.95;;
17398;SDS011;8817;48.170;8.592;2022-07-10T00:54:49;6.30;;;5.90;;
17398;SDS011;8817;48.170;8.592;2022-07-10T00:57:17;6.72;;;6.05;;
17398;SDS011;8817;48.170;8.592;2022-07-10T00:59:45;6.78;;;6.20;;
17398;SDS011;8817;48.170;8.592;2022-07-10T01:02:15;6.40;;;6.00;;
17398;SDS011;8817;48.170;8.592;2022-07-10T01:04:42;5.90;;;5.60;;
17398;SDS011;8817;48.170;8.592;2022-07-10T01:07:09;7.68;;;5.82;;
17398;SDS011;8817;48.170;8.592;2022-07-10T01:09:36;6.13;;;5.82;;
17398;SDS011;8817;48.170;8.592;2022-07-10T01:12:05;6.47;;;5.93;;
17398;SDS011;8817;48.170;8.592;2022-07-10T01:14:33;6.60;;;6.20;;
17398;SDS011;8817;48.170;8.592;2022-07-10T01:17:03;6.30;;;5.90;;
17398;SDS011;8817;48.170;8.592;2022-07-10T01:19:30;6.50;;;6.00;;
17398;SDS011;8817;48.170;8.592;2022-07-10T01:21:59;6.45;;;5.95;;
17398;SDS011;8817;48.170;8.592;2022-07-10T01:24:26;6.30;;;5.90;;
17398;SDS011;8817;48.170;8.592;2022-07-10T01:26:53;6.13;;;5.80;;
17398;SDS011;8817;48.170;8.592;2022-07-10T01:29:20;6.82;;;6.35;;
17398;SDS011;8817;48.170;8.592;2022-07-10T01:31:48;6.47;;;6.05;;
17398;SDS011;8817;48.170;8.592;2022-07-10T01:34:15;6.68;;;6.20;;
17398;SDS011;8817;48.170;8.592;2022-07-10T01:36:43;6.43;;;6.03;;
17398;SDS011;8817;48.170;8.592;2022-07-10T01:39:12;6.35;;;5.93;;
17398;SDS011;8817;48.170;8.592;2022-07-10T01:41:39;6.80;;;6.20;;
17398;SDS011;8817;48.170;8.592;2022-07-10T01:44:05;6.50;;;6.05;;
17398;SDS011;8817;48.170;8.592;2022-07-10T01:46:32;6.55;;;6.15;;
17398;SDS011;8817;48.170;8.592;2022-07-10T01:48:59;6.60;;;6.10;;
17398;SDS011;8817;48.170;8.592;2022-07-10T01:51:26;6.50;;;6.07;;
17398;SDS011;8817;48.170;8.592;2022-07-10T01:53:53;6.18;;;5.88;;
17398;SDS011;8817;48.170;8.592;2022-07-10T01:56:21;6.80;;;6.00;;
17398;SDS011;8817;48.170;8.592;2022-07-10T01:58:48;6.32;;;5.93;;
17398;SDS011;8817;48.170;8.592;2022-07-10T02:01:15;6.65;;;6.15;;
17398;SDS011;8817;48.170;8.592;2022-07-10T02:03:42;6.40;;;6.00;;
17398;SDS011;8817;48.170;8.592;2022-07-10T02:06:26;6.22;;;5.82;;
17398;SDS011;8817;48.170;8.592;2022-07-10T02:08:53;7.10;;;6.60;;
17398;SDS011;8817;48.170;8.592;2022-07-10T02:11:22;6.70;;;6.20;;
17398;SDS011;8817;48.170;8.592;2022-07-10T02:13:49;6.88;;;6.28;;
17398;SDS011;8817;48.170;8.592;2022-07-10T02:16:16;6.93;;;6.43;;
17398;SDS011;8817;48.170;8.592;2022-07-10T02:18:43;6.68;;;6.28;;
17398;SDS011;8817;48.170;8.592;2022-07-10T02:21:10;6.63;;;6.22;;
17398;SDS011;8817;48.170;8.592;2022-07-10T02:23:36;7.13;;;6.43;;
17398;SDS011;8817;48.170;8.592;2022-07-10T02:26:05;6.80;;;6.40;;
17398;SDS011;8817;48.170;8.592;2022-07-10T02:28:34;6.55;;;6.15;;
17398;SDS011;8817;48.170;8.592;2022-07-10T02:31:01;6.68;;;6.18;;
17398;SDS011;8817;48.170;8.592;2022-07-10T02:33:28;7.38;;;6.47;;
17398;SDS011;8817;48.170;8.592;2022-07-10T02:35:55;6.85;;;6.30;;
17398;SDS011;8817;48.170;8.592;2022-07-10T02:38:22;7.07;;;6.30;;
17398;SDS011;8817;48.170;8.592;2022-07-10T02:40:49;6.65;;;6.15;;
17398;SDS011;8817;48.170;8.592;2022-07-10T02:43:16;6.70;;;6.28;;
17398;SDS011;8817;48.170;8.592;2022-07-10T02:45:44;6.75;;;6.35;;
17398;SDS011;8817;48.170;8.592;2022-07-10T02:48:11;6.90;;;6.40;;
17398;SDS011;8817;48.170;8.592;2022-07-10T02:50:38;6.50;;;6.00;;
17398;SDS011;8817;48.170;8.592;2022-07-10T02:53:05;6.90;;;6.22;;
17398;SDS011;8817;48.170;8.592;2022-07-10T02:55:32;6.72;;;6.28;;
17398;SDS011;8817;48.170;8.592;2022-07-10T02:57:59;6.53;;;6.10;;
17398;SDS011;8817;48.170;8.592;2022-07-10T03:00:26;7.00;;;6.45;;
17398;SDS011;8817;48.170;8.592;2022-07-10T03:02:55;6.88;;;6.40;;
17398;SDS011;8817;48.170;8.592;2022-07-10T03:05:22;6.93;;;6.43;;
17398;SDS011;8817;48.170;8.592;2022-07-10T03:07:49;7.18;;;6.43;;
17398;SDS011;8817;48.170;8.592;2022-07-10T03:10:16;6.85;;;6.35;;
17398;SDS011;8817;48.170;8.592;2022-07-10T03:12:44;7.28;;;6.68;;
17398;SDS011;8817;48.170;8.592;2022-07-10T03:15:13;7.10;;;6.60;;
17398;SDS011;8817;48.170;8.592;2022-07-10T03:17:40;7.43;;;6.82;;
17398;SDS011;8817;48.170;8.592;2022-07-10T03:20:09;6.97;;;6.40;;
17398;SDS011;8817;48.170;8.592;2022-07-10T03:22:36;6.72;;;6.30;;
17398;SDS011;8817;48.170;8.592;2022-07-10T03:25:04;6.80;;;6.30;;
17398;SDS011;8817;48.170;8.592;2022-07-10T03:27:31;7.05;;;6.50;;
17398;SDS011;8817;48.170;8.592;2022-07-10T03:29:58;6.88;;;6.38;;
17398;SDS011;8817;48.170;8.592;2022-07-10T03:32:25;6.57;;;6.18;;
17398;SDS011;8817;48.170;8.592;2022-07-10T03:34:53;6.97;;;6.50;;
17398;SDS011;8817;48.170;8.592;2022-07-10T03:37:21;6.72;;;6.28;;
17398;SDS011;8817;48.170;8.592;2022-07-10T03:39:48;7.63;;;6.95;;
17398;SDS011;8817;48.170;8.592;2022-07-10T03:42:15;7.07;;;6.50;;
17398;SDS011;8817;48.170;8.592;2022-07-10T03:44:42;7.30;;;6.70;;
17398;SDS011;8817;48.170;8.592;2022-07-10T03:47:10;7.43;;;6.85;;
17398;SDS011;8817;48.170;8.592;2022-07-10T03:49:37;7.50;;;7.00;;
17398;SDS011;8817;48.170;8.592;2022-07-10T03:52:05;7.43;;;6.82;;
17398;SDS011;8817;48.170;8.592;2022-07-10T03:54:34;7.72;;;7.15;;
17398;SDS011;8817;48.170;8.592;2022-07-10T03:57:01;7.80;;;7.10;;
17398;SDS011;8817;48.170;8.592;2022-07-10T03:59:46;7.57;;;6.97;;
17398;SDS011;8817;48.170;8.592;2022-07-10T04:02:12;7.30;;;6.80;;
17398;SDS011;8817;48.170;8.592;2022-07-10T04:04:39;7.72;;;7.03;;
17398;SDS011;8817;48.170;8.592;2022-07-10T04:07:06;7.18;;;6.68;;
17398;SDS011;8817;48.170;8.592;2022-07-10T04:09:35;8.88;;;6.60;;
17398;SDS011;8817;48.170;8.592;2022-07-10T04:12:02;6.93;;;6.43;;
17398;SDS011;8817;48.170;8.592;2022-07-10T04:14:29;7.45;;;6.82;;
17398;SDS011;8817;48.170;8.592;2022-07-10T04:16:56;7.20;;;6.70;;
17398;SDS011;8817;48.170;8.592;2022-07-10T04:19:23;7.63;;;7.03;;
17398;SDS011;8817;48.170;8.592;2022-07-10T04:21:50;7.15;;;6.65;;
17398;SDS011;8817;48.170;8.592;2022-07-10T04:24:17;7.20;;;6.70;;
17398;SDS011;8817;48.170;8.592;2022-07-10T04:26:45;6.97;;;6.57;;
17398;SDS011;8817;48.170;8.592;2022-07-10T04:29:12;7.22;;;6.72;;
17398;SDS011;8817;48.170;8.592;2022-07-10T04:31:39;7.50;;;6.80;;
17398;SDS011;8817;48.170;8.592;2022-07-10T04:34:06;7.10;;;6.60;;
17398;SDS011;8817;48.170;8.592;2022-07-10T04:36:33;7.32;;;6.68;;
17398;SDS011;8817;48.170;8.592;2022-07-10T04:39:00;6.97;;;6.55;;
17398;SDS011;8817;48.170;8.592;2022-07-10T04:41:27;7.22;;;6.72;;
17398;SDS011;8817;48.170;8.592;2022-07-10T04:43:55;7.47;;;6.68;;
17398;SDS011;8817;48.170;8.592;2022-07-10T04:46:22;7.07;;;6.57;;
17398;SDS011;8817;48.170;8.592;2022-07-10T04:48:49;7.15;;;6.65;;
17398;SDS011;8817;48.170;8.592;2022-07-10T04:51:16;7.53;;;6.93;;
17398;SDS011;8817;48.170;8.592;2022-07-10T04:53:44;7.18;;;6.68;;
17398;SDS011;8817;48.170;8.592;2022-07-10T04:56:10;7.78;;;7.00;;
17398;SDS011;8817;48.170;8.592;2022-07-10T04:58:37;7.72;;;7.13;;
17398;SDS011;8817;48.170;8.592;2022-07-10T05:01:06;7.50;;;7.00;;
17398;SDS011;8817;48.170;8.592;2022-07-10T05:03:33;7.50;;;6.97;;
17398;SDS011;8817;48.170;8.592;2022-07-10T05:06:00;8.02;;;7.32;;
17398;SDS011;8817;48.170;8.592;2022-07-10T05:08:27;7.57;;;6.97;;
17398;SDS011;8817;48.170;8.592;2022-07-10T05:10:54;7.63;;;7.00;;
17398;SDS011;8817;48.170;8.592;2022-07-10T05:13:21;7.53;;;7.00;;
17398;SDS011;8817;48.170;8.592;2022-07-10T05:15:48;7.93;;;7.30;;
17398;SDS011;8817;48.170;8.592;2022-07-10T05:18:16;7.88;;;7.18;;
17398;SDS011;8817;48.170;8.592;2022-07-10T05:20:43;7.80;;;7.20;;
17398;SDS011;8817;48.170;8.592;2022-07-10T05:23:13;7.88;;;7.25;;
17398;SDS011;8817;48.170;8.592;2022-07-10T05:25:40;7.60;;;7.00;;
17398;SDS011;8817;48.170;8.592;2022-07-10T05:28:07;7.53;;;6.90;;
17398;SDS011;8817;48.170;8.592;2022-07-10T05:30:34;8.07;;;7.47;;
17398;SDS011;8817;48.170;8.592;2022-07-10T05:33:01;8.18;;;7.47;;
17398;SDS011;8817;48.170;8.592;2022-07-10T05:35:29;8.00;;;7.30;;
17398;SDS011;8817;48.170;8.592;2022-07-10T05:37:56;8.95;;;7.30;;
17398;SDS011;8817;48.170;8.592;2022-07-10T05:40:23;8.45;;;7.50;;
17398;SDS011;8817;48.170;8.592;2022-07-10T05:42:50;8.43;;;7.70;;
17398;SDS011;8817;48.170;8.592;2022-07-10T05:45:17;7.90;;;7.30;;
17398;SDS011;8817;48.170;8.592;2022-07-10T05:47:44;7.78;;;7.18;;
17398;SDS011;8817;48.170;8.592;2022-07-10T05:50:12;7.97;;;7.38;;
17398;SDS011;8817;48.170;8.592;2022-07-10T05:52:40;8.32;;;7.68;;
17398;SDS011;8817;48.170;8.592;2022-07-10T05:55:07;8.20;;;7.45;;
17398;SDS011;8817;48.170;8.592;2022-07-10T05:57:35;9.13;;;8.23;;
17398;SDS011;8817;48.170;8.592;2022-07-10T06:00:03;8.30;;;7.57;;
17398;SDS011;8817;48.170;8.592;2022-07-10T06:02:31;10.25;;;8.00;;
17398;SDS011;8817;48.170;8.592;2022-07-10T06:04:58;8.38;;;7.68;;
17398;SDS011;8817;48.170;8.592;2022-07-10T06:07:25;8.40;;;7.70;;
17398;SDS011;8817;48.170;8.592;2022-07-10T06:09:54;8.98;;;8.18;;
17398;SDS011;8817;48.170;8.592;2022-07-10T06:12:21;8.63;;;7.90;;
17398;SDS011;8817;48.170;8.592;2022-07-10T06:14:48;9.48;;;8.30;;
17398;SDS011;8817;48.170;8.592;2022-07-10T06:17:15;9.05;;;8.15;;
17398;SDS011;8817;48.170;8.592;2022-07-10T06:19:42;7.97;;;7.32;;
17398;SDS011;8817;48.170;8.592;2022-07-10T06:22:09;9.18;;;8.27;;
17398;SDS011;8817;48.170;8.592;2022-07-10T06:24:55;8.43;;;7.70;;
17398;SDS011;8817;48.170;8.592;2022-07-10T06:27:23;8.85;;;7.78;;
17398;SDS011;8817;48.170;8.592;2022-07-10T06:29:50;8.15;;;7.40;;
17398;SDS011;8817;48.170;8.592;2022-07-10T06:32:17;8.48;;;7.68;;
17398;SDS011;8817;48.170;8.592;2022-07-10T06:34:44;8.45;;;7.65;;
17398;SDS011;8817;48.170;8.592;2022-07-10T06:37:11;8.48;;;7.65;;
17398;SDS011;8817;48.170;8.592;2022-07-10T06:39:38;8.63;;;7.85;;
17398;SDS011;8817;48.170;8.592;2022-07-10T06:42:06;8.25;;;7.53;;
17398;SDS011;8817;48.170;8.592;2022-07-10T06:44:33;8.52;;;7.72;;
17398;SDS011;8817;48.170;8.592;2022-07-10T06:47:00;8.15;;;7.55;;
17398;SDS011;8817;48.170;8.592;2022-07-10T06:49:44;8.52;;;7.75;;
17398;SDS011;8817;48.170;8.592;2022-07-10T06:52:13;8.30;;;7.55;;
17398;SDS011;8817;48.170;8.592;2022-07-10T06:54:41;7.82;;;7.18;;
17398;SDS011;8817;48.170;8.592;2022-07-10T06:57:09;8.30;;;7.60;;
17398;SDS011;8817;48.170;8.592;2022-07-10T06:59:37;8.35;;;7.45;;
17398;SDS011;8817;48.170;8.592;2022-07-10T07:02:04;8.13;;;7.53;;
17398;SDS011;8817;48.170;8.592;2022-07-10T07:04:31;7.90;;;7.10;;
17398;SDS011;8817;48.170;8.592;2022-07-10T07:06:58;8.50;;;7.70;;
17398;SDS011;8817;48.170;8.592;2022-07-10T07:09:25;7.80;;;7.10;;
17398;SDS011;8817;48.170;8.592;2022-07-10T07:11:52;7.57;;;7.07;;
17398;SDS011;8817;48.170;8.592;2022-07-10T07:14:21;7.13;;;6.63;;
17398;SDS011;8817;48.170;8.592;2022-07-10T07:16:48;7.25;;;6.65;;
17398;SDS011;8817;48.170;8.592;2022-07-10T07:19:24;7.10;;;6.60;;
17398;SDS011;8817;48.170;8.592;2022-07-10T07:21:57;6.90;;;6.43;;
17398;SDS011;8817;48.170;8.592;2022-07-10T07:24:42;7.20;;;6.57;;
17398;SDS011;8817;48.170;8.592;2022-07-10T07:27:09;6.97;;;6.57;;
17398;SDS011;8817;48.170;8.592;2022-07-10T07:29:38;6.88;;;6.30;;
17398;SDS011;8817;48.170;8.592;2022-07-10T07:32:05;6.63;;;6.13;;
17398;SDS011;8817;48.170;8.592;2022-07-10T07:34:32;7.00;;;6.50;;
17398;SDS011;8817;48.170;8.592;2022-07-10T07:36:59;7.28;;;6.78;;
17398;SDS011;8817;48.170;8.592;2022-07-10T07:39:26;7.30;;;6.80;;
17398;SDS011;8817;48.170;8.592;2022-07-10T07:41:53;7.28;;;6.78;;
17398;SDS011;8817;48.170;8.592;2022-07-10T07:44:20;6.95;;;6.47;;
17398;SDS011;8817;48.170;8.592;2022-07-10T07:46:49;7.18;;;6.43;;
17398;SDS011;8817;48.170;8.592;2022-07-10T07:49:16;6.28;;;5.88;;
17398;SDS011;8817;48.170;8.592;2022-07-10T07:51:43;6.35;;;5.90;;
17398;SDS011;8817;48.170;8.592;2022-07-10T07:54:10;6.35;;;5.95;;
17398;SDS011;8817;48.170;8.592;2022-07-10T07:56:37;6.40;;;6.00;;
17398;SDS011;8817;48.170;8.592;2022-07-10T07:59:04;6.75;;;6.15;;
17398;SDS011;8817;48.170;8.592;2022-07-10T08:01:31;8.05;;;7.55;;
17398;SDS011;8817;48.170;8.592;2022-07-10T08:03:59;7.07;;;6.47;;
17398;SDS011;8817;48.170;8.592;2022-07-10T08:06:26;6.53;;;6.13;;
17398;SDS011;8817;48.170;8.592;2022-07-10T08:08:53;7.25;;;6.55;;
17398;SDS011;8817;48.170;8.592;2022-07-10T08:11:20;6.60;;;6.20;;
17398;SDS011;8817;48.170;8.592;2022-07-10T08:13:47;6.38;;;5.97;;
17398;SDS011;8817;48.170;8.592;2022-07-10T08:16:14;6.53;;;6.05;;
17398;SDS011;8817;48.170;8.592;2022-07-10T08:18:41;6.75;;;6.20;;
17398;SDS011;8817;48.170;8.592;2022-07-10T08:21:10;7.28;;;6.50;;
17398;SDS011;8817;48.170;8.592;2022-07-10T08:23:37;7.38;;;6.85;;
17398;SDS011;8817;48.170;8.592;2022-07-10T08:26:04;6.55;;;6.15;;
17398;SDS011;8817;48.170;8.592;2022-07-10T08:28:31;7.00;;;6.50;;
17398;SDS011;8817;48.170;8.592;2022-07-10T08:30:58;6.85;;;6.45;;
17398;SDS011;8817;48.170;8.592;2022-07-10T08:33:26;6.47;;;6.10;;
17398;SDS011;8817;48.170;8.592;2022-07-10T08:35:53;6.18;;;5.85;;
17398;SDS011;8817;48.170;8.592;2022-07-10T08:38:25;7.07;;;6.28;;
17398;SDS011;8817;48.170;8.592;2022-07-10T08:40:53;6.25;;;5.85;;
17398;SDS011;8817;48.170;8.592;2022-07-10T08:43:22;6.70;;;6.20;;
17398;SDS011;8817;48.170;8.592;2022-07-10T08:45:50;6.68;;;6.28;;
17398;SDS011;8817;48.170;8.592;2022-07-10T08:48:21;9.23;;;6.15;;
17398;SDS011;8817;48.170;8.592;2022-07-10T08:50:51;6.68;;;6.18;;
17398;SDS011;8817;48.170;8.592;2022-07-10T08:53:22;6.55;;;6.15;;
17398;SDS011;8817;48.170;8.592;2022-07-10T08:55:55;6.00;;;5.60;;
17398;SDS011;8817;48.170;8.592;2022-07-10T08:58:23;7.03;;;6.43;;
17398;SDS011;8817;48.170;8.592;2022-07-10T09:00:50;5.82;;;5.43;;
17398;SDS011;8817;48.170;8.592;2022-07-10T09:03:17;6.43;;;6.03;;
17398;SDS011;8817;48.170;8.592;2022-07-10T09:05:44;6.47;;;6.07;;
17398;SDS011;8817;48.170;8.592;2022-07-10T09:08:22;6.28;;;5.90;;
17398;SDS011;8817;48.170;8.592;2022-07-10T09:10:50;6.13;;;5.65;;
17398;SDS011;8817;48.170;8.592;2022-07-10T09:13:17;6.45;;;6.05;;
17398;SDS011;8817;48.170;8.592;2022-07-10T09:15:48;6.72;;;6.38;;
17398;SDS011;8817;48.170;8.592;2022-07-10T09:18:18;6.28;;;5.85;;
17398;SDS011;8817;48.170;8.592;2022-07-10T09:20:49;6.15;;;5.82;;
17398;SDS011;8817;48.170;8.592;2022-07-10T09:23:17;6.35;;;6.05;;
17398;SDS011;8817;48.170;8.592;2022-07-10T09:25:46;6.07;;;5.78;;
17398;SDS011;8817;48.170;8.592;2022-07-10T09:28:16;6.90;;;6.30;;
17398;SDS011;8817;48.170;8.592;2022-07-10T09:30:43;6.45;;;6.05;;
17398;SDS011;8817;48.170;8.592;2022-07-10T09:33:16;6.65;;;6.13;;
17398;SDS011;8817;48.170;8.592;2022-07-10T09:35:54;6.32;;;5.93;;
17398;SDS011;8817;48.170;8.592;2022-07-10T09:41:18;6.50;;;6.10;;
17398;SDS011;8817;48.170;8.592;2022-07-10T09:43:48;6.32;;;5.82;;
17398;SDS011;8817;48.170;8.592;2022-07-10T09:46:16;6.35;;;5.95;;
17398;SDS011;8817;48.170;8.592;2022-07-10T09:48:44;6.70;;;6.10;;
17398;SDS011;8817;48.170;8.592;2022-07-10T09:51:11;6.78;;;6.38;;
17398;SDS011;8817;48.170;8.592;2022-07-10T09:53:39;7.18;;;6.68;;
17398;SDS011;8817;48.170;8.592;2022-07-10T09:56:08;6.75;;;6.35;;
17398;SDS011;8817;48.170;8.592;2022-07-10T09:58:36;5.47;;;5.18;;
17398;SDS011;8817;48.170;8.592;2022-07-10T10:01:05;6.03;;;5.72;;
17398;SDS011;8817;48.170;8.592;2022-07-10T10:03:34;6.30;;;5.80;;
17398;SDS011;8817;48.170;8.592;2022-07-10T10:06:03;5.82;;;5.53;;
17398;SDS011;8817;48.170;8.592;2022-07-10T10:08:37;5.63;;;5.32;;
17398;SDS011;8817;48.170;8.592;2022-07-10T10:11:14;6.43;;;6.10;;
17398;SDS011;8817;48.170;8.592;2022-07-10T10:13:45;5.90;;;5.60;;
17398;SDS011;8817;48.170;8.592;2022-07-10T10:16:14;6.30;;;6.00;;
17398;SDS011;8817;48.170;8.592;2022-07-10T10:18:42;6.00;;;5.40;;
17398;SDS011;8817;48.170;8.592;2022-07-10T10:21:24;6.15;;;5.85;;
17398;SDS011;8817;48.170;8.592;2022-07-10T10:23:52;6.25;;;5.95;;
17398;SDS011;8817;48.170;8.592;2022-07-10T10:26:21;5.90;;;5.60;;
17398;SDS011;8817;48.170;8.592;2022-07-10T10:28:50;6.40;;;6.10;;
17398;SDS011;8817;48.170;8.592;2022-07-10T10:31:20;6.65;;;6.03;;
17398;SDS011;8817;48.170;8.592;2022-07-10T10:33:48;6.47;;;6.07;;
17398;SDS011;8817;48.170;8.592;2022-07-10T10:39:10;5.80;;;5.50;;
17398;SDS011;8817;48.170;8.592;2022-07-10T10:41:39;5.90;;;5.60;;
17398;SDS011;8817;48.170;8.592;2022-07-10T10:44:24;6.30;;;5.90;;
17398;SDS011;8817;48.170;8.592;2022-07-10T10:47:00;6.60;;;6.10;;
17398;SDS011;8817;48.170;8.592;2022-07-10T10:49:54;6.47;;;6.07;;
17398;SDS011;8817;48.170;8.592;2022-07-10T10:52:27;6.70;;;6.25;;
17398;SDS011;8817;48.170;8.592;2022-07-10T10:55:06;6.40;;;6.00;;
17398;SDS011;8817;48.170;8.592;2022-07-10T10:57:35;6.18;;;5.85;;
17398;SDS011;8817;48.170;8.592;2022-07-10T11:00:06;6.68;;;6.10;;
17398;SDS011;8817;48.170;8.592;2022-07-10T11:02:36;6.55;;;6.20;;
17398;SDS011;8817;48.170;8.592;2022-07-10T11:08:07;6.68;;;6.25;;
17398;SDS011;8817;48.170;8.592;2022-07-10T11:10:36;6.60;;;6.20;;
17398;SDS011;8817;48.170;8.592;2022-07-10T11:13:04;6.50;;;6.10;;
17398;SDS011;8817;48.170;8.592;2022-07-10T11:15:33;6.78;;;6.30;;
17398;SDS011;8817;48.170;8.592;2022-07-10T11:18:07;6.70;;;6.20;;
17398;SDS011;8817;48.170;8.592;2022-07-10T11:20:36;6.00;;;5.70;;
17398;SDS011;8817;48.170;8.592;2022-07-10T11:23:08;6.18;;;5.88;;
17398;SDS011;8817;48.170;8.592;2022-07-10T11:25:59;6.45;;;6.05;;
17398;SDS011;8817;48.170;8.592;2022-07-10T11:28:47;6.70;;;6.28;;
17398;SDS011;8817;48.170;8.592;2022-07-10T11:31:17;6.00;;;5.70;;
17398;SDS011;8817;48.170;8.592;2022-07-10T11:33:46;7.93;;;5.85;;
17398;SDS011;8817;48.170;8.592;2022-07-10T11:36:16;6.60;;;6.28;;
17398;SDS011;8817;48.170;8.592;2022-07-10T11:38:45;6.40;;;6.10;;
17398;SDS011;8817;48.170;8.592;2022-07-10T11:41:13;6.38;;;6.05;;
17398;SDS011;8817;48.170;8.592;2022-07-10T11:43:46;5.95;;;5.65;;
17398;SDS011;8817;48.170;8.592;2022-07-10T11:46:16;6.43;;;6.13;;
17398;SDS011;8817;48.170;8.592;2022-07-10T11:48:47;6.25;;;5.85;;
17398;SDS011;8817;48.170;8.592;2022-07-10T11:51:18;6.38;;;6.07;;
17398;SDS011;8817;48.170;8.592;2022-07-10T11:53:52;6.43;;;6.13;;
17398;SDS011;8817;48.170;8.592;2022-07-10T11:56:24;6.65;;;6.15;;
17398;SDS011;8817;48.170;8.592;2022-07-10T11:58:55;6.30;;;6.00;;
17398;SDS011;8817;48.170;8.592;2022-07-10T12:01:23;6.78;;;6.38;;
17398;SDS011;8817;48.170;8.592;2022-07-10T12:03:56;6.40;;;6.00;;
17398;SDS011;8817;48.170;8.592;2022-07-10T12:06:24;6.13;;;5.72;;
17398;SDS011;8817;48.170;8.592;2022-07-10T12:08:52;6.85;;;6.35;;
17398;SDS011;8817;48.170;8.592;2022-07-10T12:11:20;6.18;;;5.88;;
17398;SDS011;8817;48.170;8.592;2022-07-10T12:13:49;6.47;;;6.18;;
17398;SDS011;8817;48.170;8.592;2022-07-10T12:16:17;6.45;;;6.05;;
17398;SDS011;8817;48.170;8.592;2022-07-10T12:18:45;6.18;;;5.88;;
17398;SDS011;8817;48.170;8.592;2022-07-10T12:21:14;6.63;;;6.22;;
17398;SDS011;8817;48.170;8.592;2022-07-10T12:23:45;6.22;;;5.88;;
17398;SDS011;8817;48.170;8.592;2022-07-10T12:26:14;6.30;;;6.00;;
17398;SDS011;8817;48.170;8.592;2022-07-10T12:28:48;7.07;;;6.40;;
17398;SDS011;8817;48.170;8.592;2022-07-10T12:31:20;6.53;;;6.22;;
17398;SDS011;8817;48.170;8.592;2022-07-10T12:33:51;5.90;;;5.60;;
17398;SDS011;8817;48.170;8.592;2022-07-10T12:36:21;7.10;;;6.60;;
17398;SDS011;8817;48.170;8.592;2022-07-10T12:38:57;6.60;;;6.30;;
17398;SDS011;8817;48.170;8.592;2022-07-10T12:41:24;6.43;;;6.13;;
17398;SDS011;8817;48.170;8.592;2022-07-10T12:43:52;6.85;;;6.45;;
17398;SDS011;8817;48.170;8.592;2022-07-10T12:46:20;6.47;;;6.07;;
17398;SDS011;8817;48.170;8.592;2022-07-10T12:49:02;6.20;;;5.90;;
17398;SDS011;8817;48.170;8.592;2022-07-10T12:51:32;6.55;;;6.13;;
17398;SDS011;8817;48.170;8.592;2022-07-10T12:54:00;6.40;;;6.10;;
17398;SDS011;8817;48.170;8.592;2022-07-10T12:56:28;6.80;;;6.10;;
17398;SDS011;8817;48.170;8.592;2022-07-10T12:58:59;6.05;;;5.75;;
17398;SDS011;8817;48.170;8.592;2022-07-10T13:01:27;6.80;;;6.40;;
17398;SDS011;8817;48.170;8.592;2022-07-10T13:03:58;6.13;;;5.82;;
17398;SDS011;8817;48.170;8.592;2022-07-10T13:06:27;6.47;;;6.07;;
17398;SDS011;8817;48.170;8.592;2022-07-10T13:08:56;6.13;;;5.82;;
17398;SDS011;8817;48.170;8.592;2022-07-10T13:11:24;5.82;;;5.53;;
17398;SDS011;8817;48.170;8.592;2022-07-10T13:13:52;6.60;;;6.10;;
17398;SDS011;8817;48.170;8.592;2022-07-10T13:16:19;6.22;;;5.93;;
17398;SDS011;8817;48.170;8.592;2022-07-10T13:18:47;6.28;;;5.97;;
17398;SDS011;8817;48.170;8.592;2022-07-10T13:21:15;6.22;;;5.88;;
17398;SDS011;8817;48.170;8.592;2022-07-10T13:23:41;6.43;;;6.03;;
17398;SDS011;8817;48.170;8.592;2022-07-10T13:26:10;5.93;;;5.55;;
17398;SDS011;8817;48.170;8.592;2022-07-10T13:28:37;5.50;;;5.30;;
17398;SDS011;8817;48.170;8.592;2022-07-10T13:31:04;5.75;;;5.35;;
17398;SDS011;8817;48.170;8.592;2022-07-10T13:33:33;6.20;;;5.80;;
17398;SDS011;8817;48.170;8.592;2022-07-10T13:36:00;6.70;;;6.20;;
17398;SDS011;8817;48.170;8.592;2022-07-10T13:38:27;6.47;;;6.18;;
17398;SDS011;8817;48.170;8.592;2022-07-10T13:40:55;6.50;;;6.10;;
17398;SDS011;8817;48.170;8.592;2022-07-10T13:43:23;6.20;;;5.80;;
17398;SDS011;8817;48.170;8.592;2022-07-10T13:45:54;6.18;;;5.70;;
17398;SDS011;8817;48.170;8.592;2022-07-10T13:48:23;6.75;;;6.38;;
17398;SDS011;8817;48.170;8.592;2022-07-10T13:50:50;6.60;;;6.20;;
17398;SDS011;8817;48.170;8.592;2022-07-10T13:53:18;6.80;;;6.20;;
17398;SDS011;8817;48.170;8.592;2022-07-10T13:55:45;5.90;;;5.50;;
17398;SDS011;8817;48.170;8.592;2022-07-10T13:58:13;6.40;;;5.78;;
17398;SDS011;8817;48.170;8.592;2022-07-10T14:00:41;6.50;;;5.90;;
17398;SDS011;8817;48.170;8.592;2022-07-10T14:03:08;5.57;;;5.28;;
17398;SDS011;8817;48.170;8.592;2022-07-10T14:05:35;6.60;;;6.20;;
17398;SDS011;8817;48.170;8.592;2022-07-10T14:08:03;6.00;;;5.70;;
17398;SDS011;8817;48.170;8.592;2022-07-10T14:10:30;5.65;;;5.35;;
17398;SDS011;8817;48.170;8.592;2022-07-10T14:12:57;5.97;;;5.68;;
17398;SDS011;8817;48.170;8.592;2022-07-10T14:15:25;6.30;;;5.90;;
17398;SDS011;8817;48.170;8.592;2022-07-10T14:17:53;6.68;;;6.28;;
17398;SDS011;8817;48.170;8.592;2022-07-10T14:20:21;6.35;;;6.05;;
17398;SDS011;8817;48.170;8.592;2022-07-10T14:22:48;6.60;;;6.15;;
17398;SDS011;8817;48.170;8.592;2022-07-10T14:25:15;6.70;;;6.10;;
17398;SDS011;8817;48.170;8.592;2022-07-10T14:27:42;7.47;;;7.05;;
17398;SDS011;8817;48.170;8.592;2022-07-10T14:30:09;6.18;;;5.90;;
17398;SDS011;8817;48.170;8.592;2022-07-10T14:32:36;6.25;;;5.95;;
17398;SDS011;8817;48.170;8.592;2022-07-10T14:35:06;5.90;;;5.60;;
17398;SDS011;8817;48.170;8.592;2022-07-10T14:37:33;5.93;;;5.60;;
17398;SDS011;8817;48.170;8.592;2022-07-10T14:40:00;5.90;;;5.60;;
17398;SDS011;8817;48.170;8.592;2022-07-10T14:42:28;7.20;;;6.60;;
17398;SDS011;8817;48.170;8.592;2022-07-10T14:44:55;6.43;;;5.75;;
17398;SDS011;8817;48.170;8.592;2022-07-10T14:47:21;5.75;;;5.43;;
17398;SDS011;8817;48.170;8.592;2022-07-10T14:49:48;5.68;;;5.47;;
17398;SDS011;8817;48.170;8.592;2022-07-10T14:52:17;6.35;;;6.05;;
17398;SDS011;8817;48.170;8.592;2022-07-10T14:54:46;5.80;;;5.60;;
17398;SDS011;8817;48.170;8.592;2022-07-10T14:57:15;6.20;;;5.80;;
17398;SDS011;8817;48.170;8.592;2022-07-10T14:59:42;5.65;;;5.43;;
17398;SDS011;8817;48.170;8.592;2022-07-10T15:02:09;9.05;;;5.60;;
17398;SDS011;8817;48.170;8.592;2022-07-10T15:04:37;5.45;;;5.25;;
17398;SDS011;8817;48.170;8.592;2022-07-10T15:07:04;5.40;;;5.20;;
17398;SDS011;8817;48.170;8.592;2022-07-10T15:09:32;5.63;;;5.43;;
17398;SDS011;8817;48.170;8.592;2022-07-10T15:11:59;5.60;;;5.20;;
17398;SDS011;8817;48.170;8.592;2022-07-10T15:14:26;6.20;;;5.80;;
17398;SDS011;8817;48.170;8.592;2022-07-10T15:16:54;5.90;;;5.60;;